sensor_id;sensor_type;location;lat;lon;timestamp;P1;durP1;ratioP1;P2;durP2;ratioP2
26319;SDS011;14024;52.226;5.200;2023-05-07T00:01:54;37.88;;;24.55;;
26319;SDS011;14024;52.226;5.200;2023-05-07T00:04:20;45.65;;;26.63;;
26319;SDS011;14024;52.226;5.200;2023-05-07T00:06:46;40.05;;;25.80;;
26319;SDS011;14024;52.226;5.200;2023-05-07T00:09:12;46.63;;;27.05;;
26319;SDS011;14024;52.226;5.200;2023-05-07T00:11:38;40.95;;;25.10;;
26319;SDS011;14024;52.226;5.200;2023-05-07T00:14:05;37.25;;;24.35;;
26319;SDS011;14024;52.226;5.200;2023-05-07T00:16:31;41.40;;;25.27;;
26319;SDS011;14024;52.226;5.200;2023-05-07T00:18:57;38.83;;;25.48;;
26319;SDS011;14024;52.226;5.200;2023-05-07T00:21:23;41.10;;;25.98;;
26319;SDS011;14024;52.226;5.200;2023-05-07T00:23:51;45.05;;;25.23;;
26319;SDS011;14024;52.226;5.200;2023-05-07T00:26:17;48.30;;;26.35;;
26319;SDS011;14024;52.226;5.200;2023-05-07T00:28:43;41.28;;;25.02;;
26319;SDS011;14024;52.226;5.200;2023-05-07T00:31:09;42.08;;;25.83;;
26319;SDS011;14024;52.226;5.200;2023-05-07T00:33:35;36.38;;;23.40;;
26319;SDS011;14024;52.226;5.200;2023-05-07T00:36:01;38.13;;;23.65;;
26319;SDS011;14024;52.226;5.200;2023-05-07T00:38:27;37.22;;;22.10;;
26319;SDS011;14024;52.226;5.200;2023-05-07T00:40:53;35.47;;;22.98;;
26319;SDS011;14024;52.226;5.200;2023-05-07T00:43:19;33.33;;;22.70;;
26319;SDS011;14024;52.226;5.200;2023-05-07T00:45:45;35.40;;;23.10;;
26319;SDS011;14024;52.226;5.200;2023-05-07T00:48:11;36.58;;;23.27;;
26319;SDS011;14024;52.226;5.200;2023-05-07T00:50:38;33.92;;;22.77;;
26319;SDS011;14024;52.226;5.200;2023-05-07T00:53:04;37.08;;;22.15;;
26319;SDS011;14024;52.226;5.200;2023-05-07T00:55:30;30.55;;;20.08;;
26319;SDS011;14024;52.226;5.200;2023-05-07T00:57:56;29.63;;;20.00;;
26319;SDS011;14024;52.226;5.200;2023-05-07T01:00:22;28.23;;;19.52;;
26319;SDS011;14024;52.226;5.200;2023-05-07T01:02:49;32.15;;;19.30;;
26319;SDS011;14024;52.226;5.200;2023-05-07T01:05:16;31.33;;;19.40;;
26319;SDS011;14024;52.226;5.200;2023-05-07T01:07:42;27.77;;;18.42;;
26319;SDS011;14024;52.226;5.200;2023-05-07T01:10:09;30.25;;;20.10;;
26319;SDS011;14024;52.226;5.200;2023-05-07T01:12:35;26.08;;;19.50;;
26319;SDS011;14024;52.226;5.200;2023-05-07T01:15:02;24.15;;;18.20;;
26319;SDS011;14024;52.226;5.200;2023-05-07T01:17:29;25.98;;;17.23;;
26319;SDS011;14024;52.226;5.200;2023-05-07T01:19:55;24.52;;;17.40;;
26319;SDS011;14024;52.226;5.200;2023-05-07T01:22:34;27.65;;;17.23;;
26319;SDS011;14024;52.226;5.200;2023-05-07T01:25:02;27.63;;;18.65;;
26319;SDS011;14024;52.226;5.200;2023-05-07T01:27:28;25.63;;;18.02;;
26319;SDS011;14024;52.226;5.200;2023-05-07T01:29:54;28.35;;;18.25;;
26319;SDS011;14024;52.226;5.200;2023-05-07T01:32:26;29.27;;;17.83;;
26319;SDS011;14024;52.226;5.200;2023-05-07T01:34:53;24.83;;;17.58;;
26319;SDS011;14024;52.226;5.200;2023-05-07T01:37:19;23.38;;;16.75;;
26319;SDS011;14024;52.226;5.200;2023-05-07T01:39:46;25.85;;;17.85;;
26319;SDS011;14024;52.226;5.200;2023-05-07T01:42:12;25.85;;;18.15;;
26319;SDS011;14024;52.226;5.200;2023-05-07T01:44:38;27.88;;;18.15;;
26319;SDS011;14024;52.226;5.200;2023-05-07T01:47:04;30.45;;;18.60;;
26319;SDS011;14024;52.226;5.200;2023-05-07T01:49:30;28.48;;;18.52;;
26319;SDS011;14024;52.226;5.200;2023-05-07T01:51:57;25.38;;;17.27;;
26319;SDS011;14024;52.226;5.200;2023-05-07T01:54:26;30.17;;;17.75;;
26319;SDS011;14024;52.226;5.200;2023-05-07T01:56:52;28.23;;;18.15;;
26319;SDS011;14024;52.226;5.200;2023-05-07T01:59:18;21.77;;;14.90;;
26319;SDS011;14024;52.226;5.200;2023-05-07T02:01:44;25.25;;;16.73;;
26319;SDS011;14024;52.226;5.200;2023-05-07T02:04:10;27.55;;;17.95;;
26319;SDS011;14024;52.226;5.200;2023-05-07T02:06:36;28.20;;;16.52;;
26319;SDS011;14024;52.226;5.200;2023-05-07T02:09:02;28.90;;;16.77;;
26319;SDS011;14024;52.226;5.200;2023-05-07T02:11:28;25.35;;;17.45;;
26319;SDS011;14024;52.226;5.200;2023-05-07T02:13:54;27.77;;;17.63;;
26319;SDS011;14024;52.226;5.200;2023-05-07T02:16:20;26.60;;;16.55;;
26319;SDS011;14024;52.226;5.200;2023-05-07T02:18:47;24.80;;;17.23;;
26319;SDS011;14024;52.226;5.200;2023-05-07T02:21:13;22.23;;;16.92;;
26319;SDS011;14024;52.226;5.200;2023-05-07T02:23:39;25.13;;;18.15;;
26319;SDS011;14024;52.226;5.200;2023-05-07T02:26:05;24.17;;;17.33;;
26319;SDS011;14024;52.226;5.200;2023-05-07T02:28:31;27.63;;;17.33;;
26319;SDS011;14024;52.226;5.200;2023-05-07T02:31:00;26.85;;;17.08;;
26319;SDS011;14024;52.226;5.200;2023-05-07T02:33:26;23.83;;;18.48;;
26319;SDS011;14024;52.226;5.200;2023-05-07T02:35:52;24.85;;;17.88;;
26319;SDS011;14024;52.226;5.200;2023-05-07T02:38:18;22.98;;;15.93;;
26319;SDS011;14024;52.226;5.200;2023-05-07T02:40:44;33.20;;;18.42;;
26319;SDS011;14024;52.226;5.200;2023-05-07T02:43:10;23.77;;;16.77;;
26319;SDS011;14024;52.226;5.200;2023-05-07T02:45:36;28.75;;;18.13;;
26319;SDS011;14024;52.226;5.200;2023-05-07T02:48:02;24.27;;;17.30;;
26319;SDS011;14024;52.226;5.200;2023-05-07T02:50:28;29.50;;;18.50;;
26319;SDS011;14024;52.226;5.200;2023-05-07T02:52:55;28.35;;;16.98;;
26319;SDS011;14024;52.226;5.200;2023-05-07T02:55:21;27.02;;;17.75;;
26319;SDS011;14024;52.226;5.200;2023-05-07T02:57:47;30.98;;;18.48;;
26319;SDS011;14024;52.226;5.200;2023-05-07T03:00:13;31.13;;;19.05;;
26319;SDS011;14024;52.226;5.200;2023-05-07T03:02:40;28.17;;;19.13;;
26319;SDS011;14024;52.226;5.200;2023-05-07T03:05:06;27.85;;;18.88;;
26319;SDS011;14024;52.226;5.200;2023-05-07T03:07:34;28.98;;;18.77;;
26319;SDS011;14024;52.226;5.200;2023-05-07T03:10:00;27.90;;;18.80;;
26319;SDS011;14024;52.226;5.200;2023-05-07T03:12:26;27.77;;;19.00;;
26319;SDS011;14024;52.226;5.200;2023-05-07T03:14:52;25.83;;;19.33;;
26319;SDS011;14024;52.226;5.200;2023-05-07T03:17:18;27.63;;;19.23;;
26319;SDS011;14024;52.226;5.200;2023-05-07T03:19:44;26.60;;;20.38;;
26319;SDS011;14024;52.226;5.200;2023-05-07T03:22:10;26.33;;;18.48;;
26319;SDS011;14024;52.226;5.200;2023-05-07T03:24:36;26.85;;;18.40;;
26319;SDS011;14024;52.226;5.200;2023-05-07T03:27:01;26.95;;;18.27;;
26319;SDS011;14024;52.226;5.200;2023-05-07T03:29:28;28.20;;;18.80;;
26319;SDS011;14024;52.226;5.200;2023-05-07T03:31:53;31.75;;;20.33;;
26319;SDS011;14024;52.226;5.200;2023-05-07T03:34:19;30.10;;;19.77;;
26319;SDS011;14024;52.226;5.200;2023-05-07T03:36:50;29.05;;;19.60;;
26319;SDS011;14024;52.226;5.200;2023-05-07T03:39:16;29.25;;;19.05;;
26319;SDS011;14024;52.226;5.200;2023-05-07T03:41:42;24.85;;;18.38;;
26319;SDS011;14024;52.226;5.200;2023-05-07T03:44:08;24.65;;;17.35;;
26319;SDS011;14024;52.226;5.200;2023-05-07T03:46:34;28.55;;;18.52;;
26319;SDS011;14024;52.226;5.200;2023-05-07T03:49:00;26.35;;;18.85;;
26319;SDS011;14024;52.226;5.200;2023-05-07T03:51:26;29.33;;;18.85;;
26319;SDS011;14024;52.226;5.200;2023-05-07T03:53:52;26.42;;;18.45;;
26319;SDS011;14024;52.226;5.200;2023-05-07T03:56:18;30.98;;;19.27;;
26319;SDS011;14024;52.226;5.200;2023-05-07T03:58:44;28.23;;;18.63;;
26319;SDS011;14024;52.226;5.200;2023-05-07T04:01:10;26.02;;;18.23;;
26319;SDS011;14024;52.226;5.200;2023-05-07T04:03:37;30.60;;;18.73;;
26319;SDS011;14024;52.226;5.200;2023-05-07T04:06:03;27.35;;;18.73;;
26319;SDS011;14024;52.226;5.200;2023-05-07T04:08:29;29.33;;;19.42;;
26319;SDS011;14024;52.226;5.200;2023-05-07T04:10:55;30.17;;;19.70;;
26319;SDS011;14024;52.226;5.200;2023-05-07T04:13:21;34.17;;;18.85;;
26319;SDS011;14024;52.226;5.200;2023-05-07T04:15:47;24.08;;;17.77;;
26319;SDS011;14024;52.226;5.200;2023-05-07T04:18:14;28.15;;;19.83;;
26319;SDS011;14024;52.226;5.200;2023-05-07T04:20:40;27.73;;;18.77;;
26319;SDS011;14024;52.226;5.200;2023-05-07T04:23:06;27.77;;;19.48;;
26319;SDS011;14024;52.226;5.200;2023-05-07T04:25:33;28.50;;;19.95;;
26319;SDS011;14024;52.226;5.200;2023-05-07T04:27:59;28.30;;;20.52;;
26319;SDS011;14024;52.226;5.200;2023-05-07T04:30:25;33.55;;;19.67;;
26319;SDS011;14024;52.226;5.200;2023-05-07T04:32:51;27.90;;;21.33;;
26319;SDS011;14024;52.226;5.200;2023-05-07T04:35:18;27.33;;;19.45;;
26319;SDS011;14024;52.226;5.200;2023-05-07T04:37:44;29.77;;;21.23;;
26319;SDS011;14024;52.226;5.200;2023-05-07T04:40:10;30.50;;;20.33;;
26319;SDS011;14024;52.226;5.200;2023-05-07T04:42:36;32.30;;;21.20;;
26319;SDS011;14024;52.226;5.200;2023-05-07T04:45:02;27.27;;;20.30;;
26319;SDS011;14024;52.226;5.200;2023-05-07T04:47:28;32.83;;;19.40;;
26319;SDS011;14024;52.226;5.200;2023-05-07T04:49:54;24.85;;;18.25;;
26319;SDS011;14024;52.226;5.200;2023-05-07T04:52:20;26.27;;;19.58;;
26319;SDS011;14024;52.226;5.200;2023-05-07T04:54:46;25.17;;;17.98;;
26319;SDS011;14024;52.226;5.200;2023-05-07T04:57:12;29.30;;;18.83;;
26319;SDS011;14024;52.226;5.200;2023-05-07T04:59:38;27.38;;;19.33;;
26319;SDS011;14024;52.226;5.200;2023-05-07T05:02:04;32.35;;;19.67;;
26319;SDS011;14024;52.226;5.200;2023-05-07T05:04:30;30.73;;;19.40;;
26319;SDS011;14024;52.226;5.200;2023-05-07T05:06:56;28.70;;;19.42;;
26319;SDS011;14024;52.226;5.200;2023-05-07T05:09:22;31.70;;;20.52;;
26319;SDS011;14024;52.226;5.200;2023-05-07T05:11:48;30.50;;;20.55;;
26319;SDS011;14024;52.226;5.200;2023-05-07T05:14:14;29.25;;;21.67;;
26319;SDS011;14024;52.226;5.200;2023-05-07T05:16:40;29.17;;;20.90;;
26319;SDS011;14024;52.226;5.200;2023-05-07T05:19:07;27.60;;;20.13;;
26319;SDS011;14024;52.226;5.200;2023-05-07T05:21:33;30.38;;;20.55;;
26319;SDS011;14024;52.226;5.200;2023-05-07T05:23:59;31.10;;;21.80;;
26319;SDS011;14024;52.226;5.200;2023-05-07T05:26:25;32.60;;;21.35;;
26319;SDS011;14024;52.226;5.200;2023-05-07T05:28:51;32.65;;;21.38;;
26319;SDS011;14024;52.226;5.200;2023-05-07T05:31:17;30.73;;;20.08;;
26319;SDS011;14024;52.226;5.200;2023-05-07T05:33:43;31.45;;;19.65;;
26319;SDS011;14024;52.226;5.200;2023-05-07T05:36:09;35.40;;;20.20;;
26319;SDS011;14024;52.226;5.200;2023-05-07T05:38:37;32.03;;;19.70;;
26319;SDS011;14024;52.226;5.200;2023-05-07T05:41:03;27.48;;;19.58;;
26319;SDS011;14024;52.226;5.200;2023-05-07T05:43:29;26.98;;;19.63;;
26319;SDS011;14024;52.226;5.200;2023-05-07T05:45:55;31.92;;;21.15;;
26319;SDS011;14024;52.226;5.200;2023-05-07T05:48:21;32.75;;;21.15;;
26319;SDS011;14024;52.226;5.200;2023-05-07T05:50:47;33.33;;;20.50;;
26319;SDS011;14024;52.226;5.200;2023-05-07T05:53:13;30.95;;;21.35;;
26319;SDS011;14024;52.226;5.200;2023-05-07T05:55:40;31.63;;;21.88;;
26319;SDS011;14024;52.226;5.200;2023-05-07T05:58:07;32.60;;;22.45;;
26319;SDS011;14024;52.226;5.200;2023-05-07T06:00:33;38.95;;;22.90;;
26319;SDS011;14024;52.226;5.200;2023-05-07T06:02:59;33.33;;;22.80;;
26319;SDS011;14024;52.226;5.200;2023-05-07T06:05:25;38.00;;;24.00;;
26319;SDS011;14024;52.226;5.200;2023-05-07T06:07:51;40.67;;;23.95;;
26319;SDS011;14024;52.226;5.200;2023-05-07T06:10:17;36.85;;;23.85;;
26319;SDS011;14024;52.226;5.200;2023-05-07T06:12:44;34.10;;;22.75;;
26319;SDS011;14024;52.226;5.200;2023-05-07T06:15:10;36.35;;;24.67;;
26319;SDS011;14024;52.226;5.200;2023-05-07T06:17:36;36.35;;;24.10;;
26319;SDS011;14024;52.226;5.200;2023-05-07T06:20:02;36.60;;;22.83;;
26319;SDS011;14024;52.226;5.200;2023-05-07T06:22:28;39.70;;;24.10;;
26319;SDS011;14024;52.226;5.200;2023-05-07T06:24:54;36.08;;;23.35;;
26319;SDS011;14024;52.226;5.200;2023-05-07T06:27:20;43.17;;;23.95;;
26319;SDS011;14024;52.226;5.200;2023-05-07T06:29:47;39.70;;;23.85;;
26319;SDS011;14024;52.226;5.200;2023-05-07T06:32:13;43.95;;;23.23;;
26319;SDS011;14024;52.226;5.200;2023-05-07T06:34:40;35.05;;;22.77;;
26319;SDS011;14024;52.226;5.200;2023-05-07T06:37:06;32.60;;;21.77;;
26319;SDS011;14024;52.226;5.200;2023-05-07T06:39:32;34.97;;;22.17;;
26319;SDS011;14024;52.226;5.200;2023-05-07T06:41:59;34.88;;;22.98;;
26319;SDS011;14024;52.226;5.200;2023-05-07T06:44:26;38.85;;;23.50;;
26319;SDS011;14024;52.226;5.200;2023-05-07T06:46:52;34.90;;;24.95;;
26319;SDS011;14024;52.226;5.200;2023-05-07T06:49:18;35.70;;;23.65;;
26319;SDS011;14024;52.226;5.200;2023-05-07T06:51:44;38.40;;;25.08;;
26319;SDS011;14024;52.226;5.200;2023-05-07T06:54:09;38.67;;;24.75;;
26319;SDS011;14024;52.226;5.200;2023-05-07T06:56:35;39.95;;;24.80;;
26319;SDS011;14024;52.226;5.200;2023-05-07T06:59:02;43.20;;;25.98;;
26319;SDS011;14024;52.226;5.200;2023-05-07T07:01:28;41.90;;;25.88;;
26319;SDS011;14024;52.226;5.200;2023-05-07T07:03:54;37.38;;;24.40;;
26319;SDS011;14024;52.226;5.200;2023-05-07T07:06:20;38.75;;;25.52;;
26319;SDS011;14024;52.226;5.200;2023-05-07T07:08:46;40.55;;;26.08;;
26319;SDS011;14024;52.226;5.200;2023-05-07T07:11:12;39.20;;;23.65;;
26319;SDS011;14024;52.226;5.200;2023-05-07T07:13:38;37.30;;;25.35;;
26319;SDS011;14024;52.226;5.200;2023-05-07T07:16:05;37.75;;;25.13;;
26319;SDS011;14024;52.226;5.200;2023-05-07T07:18:31;37.92;;;25.00;;
26319;SDS011;14024;52.226;5.200;2023-05-07T07:20:57;37.55;;;24.52;;
26319;SDS011;14024;52.226;5.200;2023-05-07T07:23:23;34.50;;;23.67;;
26319;SDS011;14024;52.226;5.200;2023-05-07T07:25:50;36.15;;;25.00;;
26319;SDS011;14024;52.226;5.200;2023-05-07T07:28:16;37.28;;;23.90;;
26319;SDS011;14024;52.226;5.200;2023-05-07T07:30:42;36.55;;;24.48;;
26319;SDS011;14024;52.226;5.200;2023-05-07T07:33:09;34.78;;;23.67;;
26319;SDS011;14024;52.226;5.200;2023-05-07T07:35:35;37.65;;;24.02;;
26319;SDS011;14024;52.226;5.200;2023-05-07T07:38:01;36.00;;;24.38;;
26319;SDS011;14024;52.226;5.200;2023-05-07T07:40:27;33.92;;;23.65;;
26319;SDS011;14024;52.226;5.200;2023-05-07T07:42:53;34.70;;;22.63;;
26319;SDS011;14024;52.226;5.200;2023-05-07T07:45:19;34.05;;;24.20;;
26319;SDS011;14024;52.226;5.200;2023-05-07T07:47:46;32.78;;;22.65;;
26319;SDS011;14024;52.226;5.200;2023-05-07T07:50:12;37.45;;;23.88;;
26319;SDS011;14024;52.226;5.200;2023-05-07T07:52:38;36.55;;;24.40;;
26319;SDS011;14024;52.226;5.200;2023-05-07T07:55:04;33.08;;;23.92;;
26319;SDS011;14024;52.226;5.200;2023-05-07T07:57:30;38.95;;;24.02;;
26319;SDS011;14024;52.226;5.200;2023-05-07T07:59:56;34.30;;;23.88;;
26319;SDS011;14024;52.226;5.200;2023-05-07T08:02:22;35.55;;;23.30;;
26319;SDS011;14024;52.226;5.200;2023-05-07T08:04:48;36.92;;;24.70;;
26319;SDS011;14024;52.226;5.200;2023-05-07T08:07:14;35.05;;;23.60;;
26319;SDS011;14024;52.226;5.200;2023-05-07T08:09:43;34.78;;;23.17;;
26319;SDS011;14024;52.226;5.200;2023-05-07T08:12:09;35.95;;;25.02;;
26319;SDS011;14024;52.226;5.200;2023-05-07T08:14:35;34.90;;;24.30;;
26319;SDS011;14024;52.226;5.200;2023-05-07T08:17:02;33.95;;;24.70;;
26319;SDS011;14024;52.226;5.200;2023-05-07T08:19:28;34.35;;;24.17;;
26319;SDS011;14024;52.226;5.200;2023-05-07T08:21:54;34.13;;;23.95;;
26319;SDS011;14024;52.226;5.200;2023-05-07T08:24:20;35.80;;;24.73;;
26319;SDS011;14024;52.226;5.200;2023-05-07T08:26:46;38.38;;;25.80;;
26319;SDS011;14024;52.226;5.200;2023-05-07T08:29:12;32.55;;;23.92;;
26319;SDS011;14024;52.226;5.200;2023-05-07T08:31:38;37.20;;;24.33;;
26319;SDS011;14024;52.226;5.200;2023-05-07T08:34:04;36.28;;;24.15;;
26319;SDS011;14024;52.226;5.200;2023-05-07T08:36:31;36.28;;;24.08;;
26319;SDS011;14024;52.226;5.200;2023-05-07T08:38:57;38.53;;;25.08;;
26319;SDS011;14024;52.226;5.200;2023-05-07T08:41:23;38.38;;;24.02;;
26319;SDS011;14024;52.226;5.200;2023-05-07T08:43:50;34.40;;;24.25;;
26319;SDS011;14024;52.226;5.200;2023-05-07T08:46:17;35.03;;;25.17;;
26319;SDS011;14024;52.226;5.200;2023-05-07T08:48:44;36.60;;;24.45;;
26319;SDS011;14024;52.226;5.200;2023-05-07T08:51:13;35.05;;;24.25;;
26319;SDS011;14024;52.226;5.200;2023-05-07T08:53:40;34.10;;;24.85;;
26319;SDS011;14024;52.226;5.200;2023-05-07T08:56:07;37.75;;;24.92;;
26319;SDS011;14024;52.226;5.200;2023-05-07T08:58:33;31.88;;;22.85;;
26319;SDS011;14024;52.226;5.200;2023-05-07T09:01:01;32.47;;;22.35;;
26319;SDS011;14024;52.226;5.200;2023-05-07T09:03:30;33.15;;;23.25;;
26319;SDS011;14024;52.226;5.200;2023-05-07T09:05:56;33.55;;;24.85;;
26319;SDS011;14024;52.226;5.200;2023-05-07T09:08:24;32.63;;;23.60;;
26319;SDS011;14024;52.226;5.200;2023-05-07T09:10:50;34.60;;;25.58;;
26319;SDS011;14024;52.226;5.200;2023-05-07T09:13:16;32.13;;;23.15;;
26319;SDS011;14024;52.226;5.200;2023-05-07T09:15:43;31.63;;;22.70;;
26319;SDS011;14024;52.226;5.200;2023-05-07T09:18:09;32.25;;;22.98;;
26319;SDS011;14024;52.226;5.200;2023-05-07T09:20:38;26.67;;;20.00;;
26319;SDS011;14024;52.226;5.200;2023-05-07T09:23:05;28.17;;;20.08;;
26319;SDS011;14024;52.226;5.200;2023-05-07T09:25:32;26.27;;;19.58;;
26319;SDS011;14024;52.226;5.200;2023-05-07T09:27:59;34.22;;;19.55;;
26319;SDS011;14024;52.226;5.200;2023-05-07T09:30:28;29.27;;;20.70;;
26319;SDS011;14024;52.226;5.200;2023-05-07T09:32:55;30.05;;;20.55;;
26319;SDS011;14024;52.226;5.200;2023-05-07T09:35:22;29.48;;;20.65;;
26319;SDS011;14024;52.226;5.200;2023-05-07T09:37:52;26.02;;;17.67;;
26319;SDS011;14024;52.226;5.200;2023-05-07T09:40:22;23.13;;;17.73;;
26319;SDS011;14024;52.226;5.200;2023-05-07T09:42:49;23.77;;;18.20;;
26319;SDS011;14024;52.226;5.200;2023-05-07T09:45:15;24.13;;;18.30;;
26319;SDS011;14024;52.226;5.200;2023-05-07T09:47:42;25.52;;;17.80;;
26319;SDS011;14024;52.226;5.200;2023-05-07T09:50:12;23.58;;;17.33;;
26319;SDS011;14024;52.226;5.200;2023-05-07T09:52:40;25.73;;;17.27;;
26319;SDS011;14024;52.226;5.200;2023-05-07T09:55:07;22.40;;;16.20;;
26319;SDS011;14024;52.226;5.200;2023-05-07T09:57:34;23.55;;;16.85;;
26319;SDS011;14024;52.226;5.200;2023-05-07T10:00:02;21.55;;;16.33;;
26319;SDS011;14024;52.226;5.200;2023-05-07T10:02:31;19.60;;;13.65;;
26319;SDS011;14024;52.226;5.200;2023-05-07T10:04:57;19.05;;;14.88;;
26319;SDS011;14024;52.226;5.200;2023-05-07T10:07:25;24.10;;;16.75;;
26319;SDS011;14024;52.226;5.200;2023-05-07T10:09:52;19.98;;;15.30;;
26319;SDS011;14024;52.226;5.200;2023-05-07T10:12:18;23.52;;;16.33;;
26319;SDS011;14024;52.226;5.200;2023-05-07T10:14:45;25.52;;;17.08;;
26319;SDS011;14024;52.226;5.200;2023-05-07T10:17:13;21.25;;;16.50;;
26319;SDS011;14024;52.226;5.200;2023-05-07T10:19:39;27.70;;;18.40;;
26319;SDS011;14024;52.226;5.200;2023-05-07T10:22:06;26.33;;;18.13;;
26319;SDS011;14024;52.226;5.200;2023-05-07T10:24:32;26.60;;;16.05;;
26319;SDS011;14024;52.226;5.200;2023-05-07T10:27:00;24.52;;;15.85;;
26319;SDS011;14024;52.226;5.200;2023-05-07T10:32:03;19.70;;;14.57;;
26319;SDS011;14024;52.226;5.200;2023-05-07T10:34:33;19.95;;;15.85;;
26319;SDS011;14024;52.226;5.200;2023-05-07T10:37:00;23.98;;;16.35;;
26319;SDS011;14024;52.226;5.200;2023-05-07T10:39:27;25.20;;;14.90;;
26319;SDS011;14024;52.226;5.200;2023-05-07T10:41:53;19.35;;;13.60;;
26319;SDS011;14024;52.226;5.200;2023-05-07T10:44:26;18.85;;;14.00;;
26319;SDS011;14024;52.226;5.200;2023-05-07T10:52:14;18.45;;;11.50;;
26319;SDS011;14024;52.226;5.200;2023-05-07T10:59:54;22.27;;;12.90;;
26319;SDS011;14024;52.226;5.200;2023-05-07T11:02:20;24.13;;;12.80;;
26319;SDS011;14024;52.226;5.200;2023-05-07T11:04:57;18.88;;;10.35;;
26319;SDS011;14024;52.226;5.200;2023-05-07T11:07:32;13.55;;;9.95;;
26319;SDS011;14024;52.226;5.200;2023-05-07T11:20:19;6.68;;;4.55;;
26319;SDS011;14024;52.226;5.200;2023-05-07T11:22:46;12.20;;;5.70;;
26319;SDS011;14024;52.226;5.200;2023-05-07T11:25:16;9.45;;;5.95;;
26319;SDS011;14024;52.226;5.200;2023-05-07T11:27:44;9.88;;;5.60;;
26319;SDS011;14024;52.226;5.200;2023-05-07T11:30:16;8.60;;;4.50;;
26319;SDS011;14024;52.226;5.200;2023-05-07T11:32:47;7.40;;;4.30;;
26319;SDS011;14024;52.226;5.200;2023-05-07T11:35:14;7.65;;;4.60;;
26319;SDS011;14024;52.226;5.200;2023-05-07T11:37:41;8.82;;;4.97;;
26319;SDS011;14024;52.226;5.200;2023-05-07T11:40:08;9.88;;;5.10;;
26319;SDS011;14024;52.226;5.200;2023-05-07T11:42:40;12.68;;;5.68;;
26319;SDS011;14024;52.226;5.200;2023-05-07T11:45:09;10.30;;;4.75;;
26319;SDS011;14024;52.226;5.200;2023-05-07T11:47:35;9.00;;;5.22;;
26319;SDS011;14024;52.226;5.200;2023-05-07T11:50:05;11.80;;;5.57;;
26319;SDS011;14024;52.226;5.200;2023-05-07T11:52:32;7.85;;;4.72;;
26319;SDS011;14024;52.226;5.200;2023-05-07T11:54:58;9.70;;;5.35;;
26319;SDS011;14024;52.226;5.200;2023-05-07T11:57:25;11.27;;;4.35;;
26319;SDS011;14024;52.226;5.200;2023-05-07T11:59:54;7.03;;;4.78;;
26319;SDS011;14024;52.226;5.200;2023-05-07T12:02:21;7.00;;;4.30;;
26319;SDS011;14024;52.226;5.200;2023-05-07T12:04:47;8.07;;;5.15;;
26319;SDS011;14024;52.226;5.200;2023-05-07T12:07:13;7.82;;;4.88;;
26319;SDS011;14024;52.226;5.200;2023-05-07T12:09:43;12.13;;;5.72;;
26319;SDS011;14024;52.226;5.200;2023-05-07T12:12:09;10.02;;;6.03;;
26319;SDS011;14024;52.226;5.200;2023-05-07T12:14:41;10.05;;;6.30;;
26319;SDS011;14024;52.226;5.200;2023-05-07T12:17:08;10.75;;;6.57;;
26319;SDS011;14024;52.226;5.200;2023-05-07T12:19:35;8.45;;;5.75;;
26319;SDS011;14024;52.226;5.200;2023-05-07T12:22:04;10.38;;;5.75;;
26319;SDS011;14024;52.226;5.200;2023-05-07T12:24:43;7.97;;;5.30;;
26319;SDS011;14024;52.226;5.200;2023-05-07T12:27:09;9.80;;;5.68;;
26319;SDS011;14024;52.226;5.200;2023-05-07T12:29:35;11.05;;;6.90;;
26319;SDS011;14024;52.226;5.200;2023-05-07T12:32:04;12.05;;;7.93;;
26319;SDS011;14024;52.226;5.200;2023-05-07T12:34:31;11.15;;;7.05;;
26319;SDS011;14024;52.226;5.200;2023-05-07T12:36:57;10.23;;;6.90;;
26319;SDS011;14024;52.226;5.200;2023-05-07T12:39:23;11.60;;;7.03;;
26319;SDS011;14024;52.226;5.200;2023-05-07T12:41:53;8.80;;;6.30;;
26319;SDS011;14024;52.226;5.200;2023-05-07T12:44:23;11.45;;;7.40;;
26319;SDS011;14024;52.226;5.200;2023-05-07T12:46:49;11.23;;;7.13;;
26319;SDS011;14024;52.226;5.200;2023-05-07T12:49:15;15.05;;;8.65;;
26319;SDS011;14024;52.226;5.200;2023-05-07T12:51:42;13.48;;;9.10;;
26319;SDS011;14024;52.226;5.200;2023-05-07T12:54:09;10.32;;;6.88;;
26319;SDS011;14024;52.226;5.200;2023-05-07T12:56:38;13.15;;;8.65;;
26319;SDS011;14024;52.226;5.200;2023-05-07T12:59:03;13.45;;;8.48;;
26319;SDS011;14024;52.226;5.200;2023-05-07T13:01:30;13.88;;;9.40;;
26319;SDS011;14024;52.226;5.200;2023-05-07T13:03:57;14.75;;;8.38;;
26319;SDS011;14024;52.226;5.200;2023-05-07T13:06:26;10.45;;;7.80;;
26319;SDS011;14024;52.226;5.200;2023-05-07T13:08:52;14.63;;;7.43;;
26319;SDS011;14024;52.226;5.200;2023-05-07T13:11:18;11.10;;;7.28;;
26319;SDS011;14024;52.226;5.200;2023-05-07T13:13:45;14.70;;;8.35;;
26319;SDS011;14024;52.226;5.200;2023-05-07T13:16:11;12.73;;;7.65;;
26319;SDS011;14024;52.226;5.200;2023-05-07T13:18:38;17.30;;;6.88;;
26319;SDS011;14024;52.226;5.200;2023-05-07T13:21:04;13.27;;;8.05;;
26319;SDS011;14024;52.226;5.200;2023-05-07T13:23:30;13.82;;;8.95;;
26319;SDS011;14024;52.226;5.200;2023-05-07T13:25:56;14.07;;;8.40;;
26319;SDS011;14024;52.226;5.200;2023-05-07T13:28:23;12.98;;;8.25;;
26319;SDS011;14024;52.226;5.200;2023-05-07T13:30:49;15.23;;;8.00;;
26319;SDS011;14024;52.226;5.200;2023-05-07T13:33:17;12.55;;;8.70;;
26319;SDS011;14024;52.226;5.200;2023-05-07T13:35:43;17.58;;;9.25;;
26319;SDS011;14024;52.226;5.200;2023-05-07T13:38:10;13.40;;;9.30;;
26319;SDS011;14024;52.226;5.200;2023-05-07T13:40:36;17.70;;;9.55;;
26319;SDS011;14024;52.226;5.200;2023-05-07T13:43:02;20.73;;;11.25;;
26319;SDS011;14024;52.226;5.200;2023-05-07T13:45:28;16.35;;;10.80;;
26319;SDS011;14024;52.226;5.200;2023-05-07T13:47:54;18.15;;;11.48;;
26319;SDS011;14024;52.226;5.200;2023-05-07T13:50:20;16.20;;;10.48;;
26319;SDS011;14024;52.226;5.200;2023-05-07T13:52:46;17.35;;;10.77;;
26319;SDS011;14024;52.226;5.200;2023-05-07T13:55:19;16.52;;;10.90;;
26319;SDS011;14024;52.226;5.200;2023-05-07T13:57:48;16.83;;;11.27;;
26319;SDS011;14024;52.226;5.200;2023-05-07T14:00:19;25.95;;;12.50;;
26319;SDS011;14024;52.226;5.200;2023-05-07T14:02:45;22.42;;;12.52;;
26319;SDS011;14024;52.226;5.200;2023-05-07T14:05:12;32.58;;;12.15;;
26319;SDS011;14024;52.226;5.200;2023-05-07T14:07:38;18.55;;;12.57;;
26319;SDS011;14024;52.226;5.200;2023-05-07T14:10:05;17.83;;;11.73;;
26319;SDS011;14024;52.226;5.200;2023-05-07T14:12:32;22.23;;;12.10;;
26319;SDS011;14024;52.226;5.200;2023-05-07T14:14:58;21.15;;;12.32;;
26319;SDS011;14024;52.226;5.200;2023-05-07T14:17:24;23.73;;;13.73;;
26319;SDS011;14024;52.226;5.200;2023-05-07T14:19:52;26.80;;;14.75;;
26319;SDS011;14024;52.226;5.200;2023-05-07T14:22:21;27.20;;;14.77;;
26319;SDS011;14024;52.226;5.200;2023-05-07T14:24:47;28.27;;;14.95;;
26319;SDS011;14024;52.226;5.200;2023-05-07T14:27:14;30.70;;;13.80;;
26319;SDS011;14024;52.226;5.200;2023-05-07T14:29:40;22.08;;;13.68;;
26319;SDS011;14024;52.226;5.200;2023-05-07T14:32:07;26.20;;;13.90;;
26319;SDS011;14024;52.226;5.200;2023-05-07T14:34:33;20.23;;;13.27;;
26319;SDS011;14024;52.226;5.200;2023-05-07T14:37:00;23.70;;;14.48;;
26319;SDS011;14024;52.226;5.200;2023-05-07T14:39:26;31.23;;;14.80;;
26319;SDS011;14024;52.226;5.200;2023-05-07T14:41:52;23.25;;;15.00;;
26319;SDS011;14024;52.226;5.200;2023-05-07T14:44:19;27.13;;;14.80;;